createdAt,value
2018-06-29T00:01:40.710Z,2.50
2018-06-29T00:04:10.500Z,2.20
2018-06-29T00:06:40.247Z,2.00
2018-06-29T00:09:09.891Z,2.00
2018-06-29T00:11:39.748Z,2.10
2018-06-29T00:14:09.675Z,1.93
2018-06-29T00:16:39.442Z,2.50
2018-06-29T00:19:09.155Z,1.80
2018-06-29T00:21:38.888Z,2.43
2018-06-29T00:24:08.769Z,2.27
2018-06-29T00:26:38.584Z,2.73
2018-06-29T00:29:08.121Z,3.00
2018-06-29T00:31:38.203Z,2.23
2018-06-29T00:34:07.996Z,2.83
2018-06-29T00:36:37.750Z,2.63
2018-06-29T00:39:09.363Z,2.80
2018-06-29T00:41:39.396Z,2.40
2018-06-29T00:44:09.270Z,3.20
2018-06-29T00:46:39.232Z,2.27
2018-06-29T00:49:09.097Z,3.13
2018-06-29T00:51:39.023Z,2.70
2018-06-29T00:54:08.686Z,2.90
2018-06-29T00:56:38.478Z,2.73
2018-06-29T00:59:08.373Z,1.80
2018-06-29T01:01:38.285Z,3.10
2018-06-29T01:04:07.973Z,2.80
2018-06-29T01:06:37.813Z,2.23
2018-06-29T01:09:11.803Z,3.13
2018-06-29T01:11:42.274Z,2.50
2018-06-29T01:14:12.055Z,2.93
2018-06-29T01:16:41.763Z,2.70
2018-06-29T01:19:11.578Z,2.60
2018-06-29T01:21:41.302Z,2.30
2018-06-29T01:24:11.368Z,2.73
2018-06-29T01:26:41.218Z,3.70
2018-06-29T01:29:11.037Z,3.30
2018-06-29T01:31:41.302Z,2.53
2018-06-29T01:34:10.992Z,2.83
2018-06-29T01:36:40.741Z,2.50
2018-06-29T01:39:11.108Z,2.40
2018-06-29T01:41:40.897Z,3.00
2018-06-29T01:44:10.618Z,2.87
2018-06-29T01:46:40.419Z,3.40
2018-06-29T01:49:10.171Z,2.70
2018-06-29T01:51:39.841Z,2.63
2018-06-29T01:54:09.790Z,2.77
2018-06-29T01:56:39.768Z,2.37
2018-06-29T01:59:09.557Z,2.77
2018-06-29T02:01:39.312Z,3.07
2018-06-29T02:04:08.977Z,2.60
2018-06-29T02:06:38.732Z,3.10
2018-06-29T02:09:10.194Z,2.83
2018-06-29T02:11:40.517Z,3.27
2018-06-29T02:14:10.316Z,2.77
2018-06-29T02:16:40.129Z,2.70
2018-06-29T02:19:09.858Z,2.83
2018-06-29T02:21:39.729Z,2.23
2018-06-29T02:24:09.526Z,3.17
2018-06-29T02:26:39.332Z,3.00
2018-06-29T02:29:09.173Z,3.47
2018-06-29T02:31:38.902Z,3.17
2018-06-29T02:34:09.040Z,2.67
2018-06-29T02:36:38.930Z,3.70
2018-06-29T02:39:11.666Z,3.97
2018-06-29T02:41:41.948Z,3.57
2018-06-29T02:44:11.645Z,3.60
2018-06-29T02:46:41.467Z,2.83
2018-06-29T02:49:11.333Z,3.00
2018-06-29T02:51:41.017Z,3.23
2018-06-29T02:54:10.869Z,3.10
2018-06-29T02:56:40.685Z,3.87
2018-06-29T02:59:10.506Z,3.67
2018-06-29T03:01:40.324Z,4.20
2018-06-29T03:04:10.182Z,3.63
2018-06-29T03:06:40.086Z,3.50
2018-06-29T03:09:10.980Z,4.40
2018-06-29T03:11:40.691Z,4.13
2018-06-29T03:14:10.439Z,3.80
2018-06-29T03:16:40.537Z,3.50
2018-06-29T03:19:10.430Z,4.80
2018-06-29T03:21:40.115Z,4.30
2018-06-29T03:24:10.218Z,4.43
2018-06-29T03:26:40.057Z,4.10
2018-06-29T03:29:09.838Z,3.57
2018-06-29T03:31:39.679Z,3.80
2018-06-29T03:34:09.369Z,4.40
2018-06-29T03:36:39.451Z,5.10
2018-06-29T03:39:10.893Z,4.13
2018-06-29T03:41:40.985Z,4.73
2018-06-29T03:44:10.676Z,4.90
2018-06-29T03:46:40.565Z,5.17
2018-06-29T03:49:10.282Z,4.90
2018-06-29T03:51:40.072Z,5.07
2018-06-29T03:54:09.814Z,5.00
2018-06-29T03:56:39.674Z,6.20
2018-06-29T03:59:09.563Z,6.97
2018-06-29T04:01:39.367Z,5.90
2018-06-29T04:04:09.250Z,5.63
2018-06-29T04:53:22.884Z,8.70
2018-06-29T04:55:52.631Z,9.83
2018-06-29T04:58:22.466Z,8.70
2018-06-29T05:00:52.951Z,8.10
2018-06-29T05:03:22.718Z,7.30
2018-06-29T05:05:52.573Z,9.73
2018-06-29T05:08:22.409Z,8.70
2018-06-29T05:10:52.113Z,9.17
2018-06-29T05:13:21.842Z,6.47
2018-06-29T05:15:51.573Z,7.20
2018-06-29T05:18:21.425Z,8.60
2018-06-29T05:20:51.221Z,7.70
2018-06-29T05:23:20.981Z,8.23
2018-06-29T05:25:50.687Z,8.90
2018-06-29T05:28:20.489Z,10.73
2018-06-29T05:30:50.130Z,10.50
2018-06-29T05:33:20.247Z,9.80
2018-06-29T05:35:50.022Z,10.23
2018-06-29T05:38:19.882Z,11.00
2018-06-29T05:40:49.754Z,9.40
2018-06-29T05:43:19.487Z,10.17
2018-06-29T05:45:49.341Z,9.30
2018-06-29T05:48:19.216Z,9.50
2018-06-29T05:50:49.081Z,8.77
2018-06-29T05:53:18.850Z,10.93
2018-06-29T05:55:48.829Z,10.17
2018-06-29T05:58:18.801Z,9.20
2018-06-29T06:00:48.645Z,10.37
2018-06-29T06:03:18.450Z,17.70
2018-06-29T06:05:48.138Z,15.00
2018-06-29T06:08:17.984Z,12.30
2018-06-29T06:10:47.689Z,9.63
2018-06-29T06:13:17.509Z,9.73
2018-06-29T06:15:47.319Z,11.40
2018-06-29T06:18:17.125Z,10.10
2018-06-29T06:20:46.859Z,11.53
2018-06-29T06:23:21.166Z,9.60
2018-06-29T06:25:51.968Z,9.70
2018-06-29T06:28:21.710Z,11.37
2018-06-29T06:30:51.404Z,8.70
2018-06-29T06:33:21.196Z,12.97
2018-06-29T06:35:51.056Z,15.00
2018-06-29T06:38:20.830Z,10.50
2018-06-29T06:40:50.340Z,9.67
2018-06-29T06:43:20.265Z,7.90
2018-06-29T06:45:50.170Z,9.30
2018-06-29T06:49:22.527Z,9.03
2018-06-29T06:51:52.330Z,10.07
2018-06-29T06:54:22.064Z,10.40
2018-06-29T06:56:52.432Z,9.20
2018-06-29T06:59:22.022Z,8.13
2018-06-29T07:01:51.845Z,8.27
2018-06-29T07:04:21.799Z,7.80
2018-06-29T07:06:51.605Z,9.20
2018-06-29T07:09:21.337Z,10.07
2018-06-29T07:11:51.136Z,8.50
2018-06-29T07:14:20.891Z,7.50
2018-06-29T07:16:50.712Z,7.70
2018-06-29T07:19:20.502Z,7.80
2018-06-29T07:21:50.223Z,7.30
2018-06-29T07:24:19.986Z,6.30
2018-06-29T07:26:49.814Z,5.50
2018-06-29T07:29:19.542Z,7.17
2018-06-29T07:31:49.439Z,6.67
2018-06-29T07:34:19.278Z,6.90
2018-06-29T07:36:49.077Z,6.23
2018-06-29T07:39:18.807Z,4.63
2018-06-29T07:41:48.655Z,3.53
2018-06-29T07:44:18.418Z,5.57
2018-06-29T07:46:48.095Z,4.40
2018-06-29T07:49:17.884Z,5.03
2018-06-29T07:51:47.628Z,3.40
2018-06-29T07:54:17.516Z,3.53
2018-06-29T07:56:47.419Z,6.50
2018-06-29T07:59:17.616Z,4.60
2018-06-29T08:01:47.313Z,3.53
2018-06-29T08:04:17.171Z,3.70
2018-06-29T08:06:46.914Z,3.87
2018-06-29T08:09:16.658Z,3.53
2018-06-29T08:11:46.330Z,4.80
2018-06-29T08:14:16.000Z,4.80
2018-06-29T08:16:45.693Z,10.80
2018-06-29T08:19:15.454Z,3.60
2018-06-29T08:21:45.125Z,4.00
2018-06-29T08:24:14.807Z,3.50
2018-06-29T08:26:44.775Z,3.87
2018-06-29T08:29:14.509Z,3.83
2018-06-29T08:31:44.182Z,3.63
2018-06-29T08:34:13.797Z,4.47
2018-06-29T08:36:43.493Z,3.27
2018-06-29T08:39:13.178Z,3.10
2018-06-29T08:41:42.790Z,2.97
2018-06-29T08:44:12.523Z,3.63
2018-06-29T08:46:42.215Z,2.90
2018-06-29T08:49:11.885Z,3.63
2018-06-29T08:51:41.583Z,3.53
2018-06-29T08:54:11.276Z,3.73
2018-06-29T08:56:40.953Z,4.10
2018-06-29T08:59:10.647Z,2.50
2018-06-29T09:01:40.348Z,3.40
2018-06-29T09:04:10.069Z,3.17
2018-06-29T09:06:39.760Z,3.50
2018-06-29T09:09:10.292Z,3.37
2018-06-29T09:11:40.288Z,2.53
2018-06-29T09:14:09.957Z,3.13
2018-06-29T09:16:39.771Z,3.10
2018-06-29T09:19:09.480Z,3.40
2018-06-29T09:21:39.189Z,2.90
2018-06-29T09:24:08.826Z,3.00
2018-06-29T09:26:38.631Z,2.77
2018-06-29T09:29:08.291Z,4.10
2018-06-29T09:31:38.290Z,2.50
2018-06-29T09:34:08.008Z,2.90
2018-06-29T09:36:37.685Z,2.70
2018-06-29T09:39:11.119Z,2.53
2018-06-29T09:41:41.094Z,3.00
2018-06-29T09:44:10.893Z,3.23
2018-06-29T09:46:40.571Z,2.23
2018-06-29T09:49:10.173Z,3.20
2018-06-29T09:51:39.953Z,2.87
2018-06-29T09:54:09.443Z,2.70
2018-06-29T09:56:39.132Z,2.40
2018-06-29T09:59:08.812Z,3.20
2018-06-29T10:01:38.486Z,2.97
2018-06-29T10:04:08.610Z,2.53
2018-06-29T10:06:38.307Z,4.07
2018-06-29T10:09:10.403Z,2.93
2018-06-29T10:11:40.387Z,2.97
2018-06-29T10:14:10.331Z,3.20
2018-06-29T10:16:40.013Z,2.90
2018-06-29T10:19:09.081Z,2.53
2018-06-29T10:21:38.682Z,2.77
2018-06-29T10:24:08.378Z,3.03
2018-06-29T10:26:38.079Z,3.30
2018-06-29T10:29:07.804Z,3.60
2018-06-29T10:31:37.469Z,2.50
2018-06-29T10:34:07.241Z,2.77
2018-06-29T10:36:36.869Z,3.20
2018-06-29T10:39:11.148Z,2.80
2018-06-29T10:41:41.215Z,2.77
2018-06-29T10:44:11.251Z,4.47
2018-06-29T10:46:41.948Z,3.20
2018-06-29T10:49:11.743Z,2.20
2018-06-29T10:51:41.428Z,2.83
2018-06-29T10:54:11.889Z,3.50
2018-06-29T10:56:41.565Z,2.70
2018-06-29T10:59:11.225Z,2.20
2018-06-29T11:01:40.894Z,2.80
2018-06-29T11:04:11.133Z,2.83
2018-06-29T11:06:40.778Z,2.43
2018-06-29T11:09:11.341Z,2.10
2018-06-29T11:11:41.060Z,3.30
2018-06-29T11:14:11.701Z,2.77
2018-06-29T11:16:41.377Z,2.63
2018-06-29T11:19:11.082Z,2.40
2018-06-29T11:21:40.780Z,2.60
2018-06-29T11:24:10.488Z,3.53
2018-06-29T11:26:40.196Z,2.20
2018-06-29T11:29:09.875Z,2.53
2018-06-29T11:31:39.345Z,3.10
2018-06-29T11:34:09.407Z,3.30
2018-06-29T11:36:38.977Z,2.70
